createdAt,value
2023-03-28T00:04:41.998Z,-0.77
2023-03-28T00:09:45.181Z,-0.75
2023-03-28T00:14:49.912Z,-0.80
2023-03-28T00:19:53.536Z,-0.81
2023-03-28T00:24:57.198Z,-0.79
2023-03-28T00:30:00.924Z,-0.79
2023-03-28T00:35:09.715Z,-0.79
2023-03-28T00:40:15.886Z,-0.79
2023-03-28T00:45:21.551Z,-0.78
2023-03-28T00:50:31.592Z,-0.68
2023-03-28T00:55:46.205Z,-0.53
2023-03-28T01:01:06.157Z,-0.46
2023-03-28T01:06:16.394Z,-0.44
2023-03-28T01:11:21.205Z,-0.46
2023-03-28T01:16:24.298Z,-0.49
2023-03-28T01:21:50.832Z,-0.49
2023-03-28T01:27:15.646Z,-0.49
2023-03-28T01:32:55.504Z,-0.49
2023-03-28T01:38:52.532Z,-0.53
2023-03-28T01:44:19.003Z,-0.58
2023-03-28T01:49:49.798Z,-0.63
2023-03-28T01:55:09.438Z,-0.65
2023-03-28T02:00:36.853Z,-0.56
2023-03-28T02:05:45.499Z,-0.46
2023-03-28T02:10:56.488Z,-0.37
2023-03-28T02:16:23.590Z,-0.37
2023-03-28T02:22:16.602Z,-0.42
2023-03-28T02:27:35.032Z,-0.48
2023-03-28T02:33:06.256Z,-0.52
2023-03-28T02:38:31.080Z,-0.56
2023-03-28T02:43:48.040Z,-0.64
2023-03-28T02:49:14.481Z,-0.69
2023-03-28T02:54:35.927Z,-0.75
2023-03-28T03:00:16.685Z,-0.74
2023-03-28T03:05:20.852Z,-0.66
2023-03-28T03:10:23.347Z,-0.60
2023-03-28T03:15:32.863Z,-0.48
2023-03-28T03:20:51.829Z,-0.35
2023-03-28T03:25:56.509Z,-0.20
2023-03-28T03:31:06.900Z,-0.05
2023-03-28T03:36:13.642Z,0.02
2023-03-28T03:41:16.421Z,0.07
2023-03-28T03:46:19.540Z,0.14
2023-03-28T03:51:22.948Z,0.21
2023-03-28T03:56:32.553Z,0.34
2023-03-28T04:01:36.379Z,0.41
2023-03-28T04:07:06.215Z,0.50
2023-03-28T04:12:11.790Z,0.64
2023-03-28T04:17:30.306Z,0.79
2023-03-28T04:22:45.497Z,0.91
2023-03-28T04:28:00.035Z,0.97
2023-03-28T04:33:06.007Z,1.02
2023-03-28T04:38:20.722Z,1.07
2023-03-28T04:43:32.617Z,1.05
2023-03-28T04:48:44.915Z,1.09
2023-03-28T04:54:28.521Z,1.10
2023-03-28T05:00:27.990Z,1.00
2023-03-28T05:06:02.367Z,1.18
2023-03-28T05:11:11.202Z,1.39
2023-03-28T05:16:16.698Z,1.46
2023-03-28T05:21:19.065Z,1.54
2023-03-28T05:26:30.989Z,1.57
2023-03-28T05:31:44.717Z,1.67
2023-03-28T05:36:58.692Z,1.75
2023-03-28T05:42:23.920Z,1.74
2023-03-28T05:47:27.155Z,1.76
2023-03-28T05:52:32.542Z,1.90
2023-03-28T05:57:57.597Z,2.01
2023-03-28T06:03:40.403Z,2.06
2023-03-28T06:09:19.523Z,2.03
2023-03-28T06:14:46.740Z,2.09
2023-03-28T06:20:11.273Z,2.23
2023-03-28T06:25:28.485Z,2.50
2023-03-28T06:30:31.352Z,2.55
2023-03-28T06:35:55.330Z,2.09
2023-03-28T06:41:25.779Z,1.35
2023-03-28T06:46:32.298Z,0.91
2023-03-28T06:51:43.636Z,0.80
2023-03-28T06:57:10.406Z,0.92
2023-03-28T07:02:19.849Z,1.11
2023-03-28T07:07:23.693Z,1.27
2023-03-28T07:12:35.419Z,1.38
2023-03-28T07:17:38.623Z,1.59
2023-03-28T07:23:06.727Z,1.79
2023-03-28T07:28:24.320Z,1.92
2023-03-28T07:33:40.712Z,1.94
2023-03-28T07:38:48.967Z,2.17
2023-03-28T07:44:08.607Z,2.52
2023-03-28T07:49:20.694Z,3.03
2023-03-28T07:54:48.943Z,2.97
2023-03-28T07:59:57.694Z,2.77
2023-03-28T08:05:16.884Z,3.04
2023-03-28T08:10:24.427Z,3.12
2023-03-28T08:15:36.947Z,2.90
2023-03-28T08:20:58.453Z,2.83
2023-03-28T08:26:07.736Z,2.75
2023-03-28T08:31:23.533Z,2.85
2023-03-28T08:36:37.772Z,2.96
2023-03-28T08:42:41.458Z,3.15
2023-03-28T08:48:11.677Z,3.37
2023-03-28T08:53:37.533Z,3.00
2023-03-28T08:59:25.652Z,2.50
2023-03-28T09:04:52.771Z,2.57
2023-03-28T09:11:19.091Z,2.95
2023-03-28T09:17:27.193Z,3.11
2023-03-28T09:23:31.935Z,3.11
2023-03-28T09:29:23.529Z,3.42
2023-03-28T09:34:30.633Z,3.66
2023-03-28T09:39:59.554Z,3.76
2023-03-28T09:45:37.263Z,3.62
2023-03-28T09:51:48.827Z,3.47
2023-03-28T09:57:16.157Z,3.56
2023-03-28T10:02:36.092Z,3.46
2023-03-28T10:08:22.795Z,3.27
2023-03-28T10:14:17.161Z,3.60
2023-03-28T10:19:40.113Z,4.24
2023-03-28T10:25:04.243Z,4.33
2023-03-28T10:30:42.160Z,3.91
2023-03-28T10:36:03.042Z,3.57
2023-03-28T10:41:55.119Z,3.62
2023-03-28T10:47:57.891Z,3.83
2023-03-28T10:54:12.597Z,4.15
2023-03-28T10:59:54.858Z,4.15
2023-03-28T11:05:38.384Z,3.85
2023-03-28T11:11:33.491Z,2.92
2023-03-28T11:17:47.549Z,2.00
2023-03-28T11:24:19.180Z,1.88
2023-03-28T11:30:42.397Z,2.22
2023-03-28T11:36:01.541Z,2.54
2023-03-28T11:41:26.214Z,3.18
2023-03-28T11:47:23.638Z,4.13
2023-03-28T11:53:26.957Z,4.34
2023-03-28T11:59:02.627Z,3.36
2023-03-28T12:04:28.298Z,2.56
2023-03-28T12:10:06.728Z,2.14
2023-03-28T12:16:09.901Z,2.15
2023-03-28T12:22:35.403Z,2.17
2023-03-28T12:28:22.442Z,2.28
2023-03-28T12:34:32.503Z,2.40
2023-03-28T12:40:14.673Z,2.62
2023-03-28T12:45:36.298Z,2.80
2023-03-28T12:51:25.725Z,2.92
2023-03-28T12:58:00.842Z,3.01
2023-03-28T13:04:24.601Z,3.39
2023-03-28T13:10:10.627Z,3.50
2023-03-28T13:15:53.210Z,3.51
2023-03-28T13:21:30.303Z,3.68
2023-03-28T13:27:17.121Z,3.92
2023-03-28T13:32:34.691Z,3.99
2023-03-28T13:37:51.099Z,3.69
2023-03-28T13:43:07.300Z,3.32
2023-03-28T13:49:26.050Z,2.64
2023-03-28T13:54:46.443Z,1.93
2023-03-28T14:00:08.804Z,1.88
2023-03-28T14:05:28.748Z,1.93
2023-03-28T14:10:36.035Z,1.92
2023-03-28T14:15:40.724Z,2.14
2023-03-28T14:20:54.467Z,2.24
2023-03-28T14:26:07.334Z,2.41
2023-03-28T14:31:27.279Z,2.46
2023-03-28T14:36:33.758Z,2.06
2023-03-28T14:41:37.523Z,2.02
2023-03-28T14:46:40.468Z,2.15
2023-03-28T14:51:45.162Z,2.19
2023-03-28T14:56:48.032Z,1.88
2023-03-28T15:01:51.878Z,1.48
2023-03-28T15:07:01.486Z,1.40
2023-03-28T15:12:12.170Z,1.36
2023-03-28T15:17:22.504Z,1.32
2023-03-28T15:22:34.923Z,1.51
2023-03-28T15:27:53.137Z,1.80
2023-03-28T15:33:02.230Z,1.99
2023-03-28T15:38:41.606Z,2.11
2023-03-28T15:44:31.317Z,2.32
2023-03-28T15:49:38.485Z,2.45
2023-03-28T15:54:44.721Z,2.69
2023-03-28T15:59:56.209Z,2.91
2023-03-28T16:05:09.921Z,2.94
2023-03-28T16:10:19.671Z,2.70
2023-03-28T16:15:53.992Z,2.38
2023-03-28T16:21:15.070Z,2.16
2023-03-28T16:26:17.416Z,1.97
2023-03-28T16:31:25.158Z,1.80
2023-03-28T16:36:27.859Z,1.71
2023-03-28T16:41:30.309Z,1.59
2023-03-28T16:46:33.295Z,1.48
2023-03-28T16:51:41.087Z,1.48
2023-03-28T16:56:54.652Z,1.43
2023-03-28T17:01:58.163Z,1.37
2023-03-28T17:07:00.290Z,1.39
2023-03-28T17:12:04.370Z,1.41
2023-03-28T17:17:06.887Z,1.44
2023-03-28T17:22:18.788Z,1.46
2023-03-28T17:27:22.648Z,1.48
2023-03-28T17:32:25.977Z,1.49
2023-03-28T17:37:31.608Z,1.43
2023-03-28T17:42:34.386Z,1.41
2023-03-28T17:47:39.457Z,1.33
2023-03-28T17:52:41.582Z,1.30
2023-03-28T17:57:43.798Z,1.27
2023-03-28T18:02:46.688Z,1.21
2023-03-28T18:08:04.647Z,1.18
2023-03-28T18:13:09.575Z,1.01
2023-03-28T18:18:14.720Z,0.49
2023-03-28T18:23:24.333Z,0.44
2023-03-28T18:28:29.642Z,0.64
2023-03-28T18:33:37.569Z,0.69
2023-03-28T18:38:42.733Z,0.70
2023-03-28T18:43:45.749Z,0.69
2023-03-28T18:48:50.820Z,0.64
2023-03-28T18:53:54.068Z,0.64
2023-03-28T18:58:59.058Z,0.61
2023-03-28T19:04:01.447Z,0.57
2023-03-28T19:09:14.252Z,0.11
2023-03-28T19:14:19.333Z,-0.31
2023-03-28T19:19:23.614Z,-0.58
2023-03-28T19:24:25.815Z,-0.78
2023-03-28T19:29:28.535Z,-0.95
2023-03-28T19:34:30.660Z,-0.87
2023-03-28T19:39:38.184Z,-0.58
2023-03-28T19:44:46.977Z,-0.41
2023-03-28T19:49:53.126Z,-0.31
2023-03-28T19:55:04.543Z,-0.26
2023-03-28T20:00:23.133Z,-0.26
2023-03-28T20:05:27.870Z,-0.29
2023-03-28T20:10:32.641Z,-0.36
2023-03-28T20:15:41.191Z,-0.41
2023-03-28T20:20:43.699Z,-0.46
2023-03-28T20:25:47.729Z,-0.51
2023-03-28T20:30:51.612Z,-0.57
2023-03-28T20:35:58.810Z,-0.64
2023-03-28T20:41:01.857Z,-0.67
2023-03-28T20:46:04.969Z,-0.74
2023-03-28T20:51:18.779Z,-0.78
2023-03-28T20:56:21.948Z,-0.86
2023-03-28T21:01:27.972Z,-0.91
2023-03-28T21:06:36.531Z,-0.98
2023-03-28T21:12:04.235Z,-1.04
2023-03-28T21:17:08.752Z,-1.08
2023-03-28T21:22:11.727Z,-1.12
2023-03-28T21:27:15.852Z,-1.17
2023-03-28T21:32:18.084Z,-1.24
2023-03-28T21:37:20.957Z,-1.29
2023-03-28T21:42:24.921Z,-1.34
2023-03-28T21:47:27.970Z,-1.41
2023-03-28T21:52:33.257Z,-1.50
2023-03-28T21:57:36.723Z,-1.52
2023-03-28T22:02:39.119Z,-1.57
2023-03-28T22:07:44.659Z,-1.65
2023-03-28T22:12:49.085Z,-1.72
2023-03-28T22:17:51.121Z,-1.80
2023-03-28T22:22:53.907Z,-1.82
2023-03-28T22:27:58.143Z,-1.86
2023-03-28T22:33:00.877Z,-1.91
2023-03-28T22:38:04.193Z,-1.91
2023-03-28T22:43:07.117Z,-1.97
2023-03-28T22:48:14.548Z,-1.99
2023-03-28T22:53:22.780Z,-2.01
2023-03-28T22:58:26.249Z,-2.04
2023-03-28T23:03:32.493Z,-2.07
2023-03-28T23:08:37.812Z,-2.11
2023-03-28T23:13:44.161Z,-2.12
2023-03-28T23:18:49.979Z,-2.16
2023-03-28T23:23:54.990Z,-2.18
2023-03-28T23:29:02.201Z,-2.16
2023-03-28T23:34:04.598Z,-2.14
2023-03-28T23:39:07.341Z,-2.17
2023-03-28T23:44:09.969Z,-2.23
2023-03-28T23:49:20.032Z,-2.29
2023-03-28T23:55:02.368Z,-2.40
